createdAt,value
2018-07-03T00:01:22.644Z,24.07
2018-07-03T00:03:48.603Z,24.07
2018-07-03T00:06:14.575Z,24.13
2018-07-03T00:08:40.550Z,24.02
2018-07-03T00:11:06.524Z,24.06
2018-07-03T00:13:32.474Z,24.06
2018-07-03T00:15:58.447Z,23.99
2018-07-03T00:18:24.417Z,23.96
2018-07-03T00:20:50.395Z,23.93
2018-07-03T00:23:16.351Z,24.04
2018-07-03T00:25:42.314Z,24.01
2018-07-03T00:28:08.282Z,24.02
2018-07-03T00:30:34.241Z,23.96
2018-07-03T00:33:00.197Z,23.95
2018-07-03T00:35:26.273Z,24.01
2018-07-03T00:37:52.230Z,23.94
2018-07-03T00:40:18.208Z,24.01
2018-07-03T00:42:44.408Z,23.92
2018-07-03T00:45:10.387Z,23.93
2018-07-03T00:47:36.371Z,23.92
2018-07-03T00:50:02.376Z,23.94
2018-07-03T00:52:28.386Z,23.98
2018-07-03T00:54:54.367Z,23.90
2018-07-03T00:57:20.365Z,23.85
2018-07-03T00:59:46.319Z,23.87
2018-07-03T01:02:12.331Z,23.86
2018-07-03T01:04:38.315Z,23.82
2018-07-03T01:07:04.340Z,23.89
2018-07-03T01:09:30.311Z,23.95
2018-07-03T01:11:56.292Z,23.84
2018-07-03T01:14:22.243Z,23.96
2018-07-03T01:16:48.250Z,23.89
2018-07-03T01:19:14.218Z,23.90
2018-07-03T01:21:40.228Z,23.88
2018-07-03T01:24:06.318Z,23.89
2018-07-03T01:26:32.457Z,23.87
2018-07-03T01:28:58.426Z,23.87
2018-07-03T01:31:24.397Z,23.88
2018-07-03T01:33:50.380Z,23.80
2018-07-03T01:36:16.405Z,23.82
2018-07-03T01:38:42.367Z,23.83
2018-07-03T01:41:08.368Z,23.78
2018-07-03T01:43:34.337Z,23.74
2018-07-03T01:46:00.329Z,23.72
2018-07-03T01:48:26.302Z,23.76
2018-07-03T01:50:52.279Z,23.76
2018-07-03T01:53:18.316Z,23.73
2018-07-03T01:55:44.302Z,23.74
2018-07-03T01:58:10.287Z,23.78
2018-07-03T02:00:36.254Z,23.74
2018-07-03T02:03:02.222Z,23.75
2018-07-03T02:05:28.189Z,23.72
2018-07-03T02:07:54.200Z,23.70
2018-07-03T02:10:20.325Z,23.69
2018-07-03T02:12:46.359Z,23.74
2018-07-03T02:15:12.345Z,23.71
2018-07-03T02:17:38.371Z,23.71
2018-07-03T02:20:04.659Z,23.68
2018-07-03T02:22:30.677Z,23.66
2018-07-03T02:24:56.680Z,23.66
2018-07-03T02:27:22.675Z,23.63
2018-07-03T02:29:48.677Z,23.64
2018-07-03T02:32:14.686Z,23.64
2018-07-03T02:34:40.675Z,23.61
2018-07-03T02:37:06.667Z,23.65
2018-07-03T02:39:32.659Z,23.58
2018-07-03T02:41:58.646Z,23.56
2018-07-03T02:44:24.598Z,23.58
2018-07-03T02:46:50.615Z,23.63
2018-07-03T02:49:16.571Z,23.57
2018-07-03T02:51:42.557Z,23.63
2018-07-03T02:54:08.553Z,23.60
2018-07-03T02:56:34.596Z,23.63
2018-07-03T02:59:00.600Z,23.65
2018-07-03T03:01:26.596Z,23.64
2018-07-03T03:03:52.584Z,23.54
2018-07-03T03:06:18.595Z,23.60
2018-07-03T03:08:44.582Z,23.57
2018-07-03T03:11:10.648Z,23.57
2018-07-03T03:13:36.645Z,23.61
2018-07-03T03:16:02.619Z,23.59
2018-07-03T03:18:28.739Z,23.52
2018-07-03T03:20:54.718Z,23.60
2018-07-03T03:23:20.688Z,23.63
2018-07-03T03:25:46.720Z,23.60
2018-07-03T03:28:12.729Z,23.58
2018-07-03T03:30:38.696Z,23.57
2018-07-03T03:33:04.706Z,23.56
2018-07-03T03:35:30.677Z,23.61
2018-07-03T03:37:56.663Z,23.54
2018-07-03T03:40:22.664Z,23.48
2018-07-03T03:42:48.804Z,23.58
2018-07-03T03:45:14.808Z,23.51
2018-07-03T03:47:40.778Z,23.42
2018-07-03T03:50:06.778Z,23.41
2018-07-03T03:52:32.750Z,23.40
2018-07-03T03:54:58.751Z,23.42
2018-07-03T03:57:24.738Z,23.38
2018-07-03T03:59:50.726Z,23.41
2018-07-03T04:02:16.766Z,23.38
2018-07-03T04:04:42.716Z,23.38
2018-07-03T04:07:08.854Z,23.39
2018-07-03T04:09:34.842Z,23.37
2018-07-03T04:12:01.167Z,23.31
2018-07-03T04:14:27.195Z,23.33
2018-07-03T04:16:53.168Z,23.32
2018-07-03T04:19:19.150Z,23.32
2018-07-03T04:21:45.146Z,23.39
2018-07-03T04:24:11.144Z,23.38
2018-07-03T04:26:37.145Z,23.30
2018-07-03T04:29:03.150Z,23.25
2018-07-03T04:31:29.136Z,23.28
2018-07-03T04:33:55.125Z,23.24
2018-07-03T04:36:21.084Z,23.33
2018-07-03T04:38:47.095Z,23.26
2018-07-03T04:41:13.083Z,23.27
2018-07-03T04:43:39.052Z,23.24
2018-07-03T04:46:05.065Z,23.21
2018-07-03T04:48:31.107Z,23.22
2018-07-03T04:50:57.108Z,23.27
2018-07-03T04:53:23.114Z,23.27
2018-07-03T04:55:49.082Z,23.25
2018-07-03T04:58:15.124Z,23.27
2018-07-03T05:00:41.100Z,23.26
2018-07-03T05:03:07.096Z,23.21
2018-07-03T05:05:33.080Z,23.23
2018-07-03T05:07:59.028Z,23.24
2018-07-03T05:10:24.980Z,23.26
2018-07-03T05:12:50.948Z,23.31
2018-07-03T05:15:16.948Z,23.28
2018-07-03T05:17:42.932Z,23.38
2018-07-03T05:20:08.989Z,23.31
2018-07-03T05:22:34.997Z,23.27
2018-07-03T05:25:00.995Z,23.25
2018-07-03T05:27:27.017Z,23.27
2018-07-03T05:29:53.002Z,23.26
2018-07-03T05:32:19.041Z,23.33
2018-07-03T05:34:45.034Z,23.31
2018-07-03T05:37:11.131Z,23.33
2018-07-03T05:39:37.408Z,23.32
2018-07-03T05:42:03.384Z,23.37
2018-07-03T05:44:29.368Z,23.42
2018-07-03T05:46:55.602Z,23.43
2018-07-03T05:49:21.555Z,23.45
2018-07-03T05:51:47.528Z,23.42
2018-07-03T05:54:13.523Z,23.42
2018-07-03T05:56:39.933Z,23.42
2018-07-03T05:59:05.917Z,23.45
2018-07-03T06:01:31.928Z,23.38
2018-07-03T06:03:57.933Z,23.41
2018-07-03T06:06:23.916Z,23.42
2018-07-03T06:08:49.896Z,23.39
2018-07-03T06:11:15.897Z,23.46
2018-07-03T06:13:41.916Z,23.39
2018-07-03T06:16:07.908Z,23.35
2018-07-03T06:18:33.987Z,23.39
2018-07-03T06:21:00.038Z,23.62
2018-07-03T06:23:25.994Z,23.60
2018-07-03T06:25:52.107Z,23.49
2018-07-03T06:28:18.183Z,23.50
2018-07-03T06:30:44.173Z,23.52
2018-07-03T06:33:10.291Z,23.46
2018-07-03T06:35:36.252Z,23.46
2018-07-03T06:38:02.229Z,23.54
2018-07-03T06:40:28.221Z,23.61
2018-07-03T06:42:54.299Z,23.69
2018-07-03T06:45:20.282Z,23.66
2018-07-03T06:47:46.244Z,23.80
2018-07-03T06:50:12.288Z,23.66
2018-07-03T06:52:38.260Z,23.70
2018-07-03T06:55:04.259Z,23.68
2018-07-03T06:57:30.219Z,23.74
2018-07-03T06:59:56.179Z,23.81
2018-07-03T07:02:22.180Z,23.81
2018-07-03T07:04:48.180Z,23.91
2018-07-03T07:07:14.171Z,23.87
2018-07-03T07:09:40.184Z,23.90
2018-07-03T07:12:06.169Z,23.86
2018-07-03T07:14:32.135Z,23.88
2018-07-03T07:16:58.138Z,23.96
2018-07-03T07:19:24.106Z,23.86
2018-07-03T07:21:50.155Z,23.97
2018-07-03T07:24:16.245Z,24.03
2018-07-03T07:26:42.244Z,23.95
2018-07-03T07:29:08.284Z,23.89
2018-07-03T07:31:34.345Z,23.87
2018-07-03T07:34:00.339Z,23.92
2018-07-03T07:36:26.314Z,23.89
2018-07-03T07:38:52.276Z,23.86
2018-07-03T07:41:18.269Z,23.97
2018-07-03T07:43:44.307Z,23.87
2018-07-03T07:46:10.268Z,23.95
2018-07-03T07:48:36.326Z,23.94
2018-07-03T07:51:02.331Z,24.11
2018-07-03T07:53:28.323Z,24.28
2018-07-03T07:55:54.330Z,24.19
2018-07-03T07:58:20.314Z,24.27
2018-07-03T08:00:46.330Z,24.00
2018-07-03T08:03:12.320Z,24.11
2018-07-03T08:05:38.371Z,24.02
2018-07-03T08:08:04.345Z,24.07
2018-07-03T08:10:30.396Z,24.00
2018-07-03T08:12:56.413Z,24.14
2018-07-03T08:15:22.387Z,24.20
2018-07-03T08:17:48.360Z,24.05
2018-07-03T08:20:14.340Z,24.02
2018-07-03T08:22:40.343Z,24.18
2018-07-03T08:25:06.333Z,24.29
2018-07-03T08:27:32.407Z,24.56
2018-07-03T08:29:58.404Z,24.25
2018-07-03T08:32:24.419Z,24.20
2018-07-03T08:34:50.407Z,24.34
2018-07-03T08:37:16.371Z,24.41
2018-07-03T08:39:42.327Z,24.18
2018-07-03T08:42:08.328Z,24.24
2018-07-03T08:44:34.299Z,24.26
2018-07-03T08:47:00.478Z,24.24
2018-07-03T08:49:26.692Z,24.22
2018-07-03T08:51:52.766Z,24.19
2018-07-03T08:54:18.652Z,24.38
2018-07-03T08:56:44.834Z,24.50
2018-07-03T08:59:10.820Z,24.34
2018-07-03T09:01:36.825Z,24.36
2018-07-03T09:04:03.037Z,24.68
2018-07-03T09:06:29.115Z,24.23
2018-07-03T09:08:55.108Z,24.42
2018-07-03T09:11:21.099Z,24.38
2018-07-03T09:13:47.113Z,24.50
2018-07-03T09:16:13.108Z,24.47
2018-07-03T09:18:39.072Z,24.37
2018-07-03T09:21:05.077Z,24.49
2018-07-03T09:23:31.155Z,24.33
2018-07-03T09:25:57.094Z,24.28
2018-07-03T09:28:23.075Z,24.44
2018-07-03T09:30:49.047Z,24.52
2018-07-03T09:33:15.003Z,24.41
2018-07-03T09:35:41.172Z,24.66
2018-07-03T09:38:07.160Z,24.67
2018-07-03T09:40:33.145Z,24.71
2018-07-03T09:42:59.423Z,24.46
2018-07-03T09:45:25.394Z,24.51
2018-07-03T09:47:51.400Z,24.36
2018-07-03T09:50:17.398Z,24.66
2018-07-03T09:52:43.385Z,24.72
2018-07-03T09:55:09.413Z,24.51
2018-07-03T09:57:35.476Z,24.64
2018-07-03T10:00:01.477Z,24.75
2018-07-03T10:02:27.499Z,24.80
2018-07-03T10:04:53.591Z,24.73
2018-07-03T10:07:19.608Z,24.63
2018-07-03T10:09:45.582Z,24.88
2018-07-03T10:12:11.547Z,24.55
2018-07-03T10:14:37.524Z,24.85
2018-07-03T10:17:03.543Z,24.60
2018-07-03T10:19:29.521Z,24.44
2018-07-03T10:21:55.512Z,24.60
2018-07-03T10:24:21.493Z,24.64
2018-07-03T10:26:47.504Z,24.74
2018-07-03T10:29:14.041Z,25.12
2018-07-03T10:31:40.056Z,24.70
2018-07-03T10:34:06.041Z,25.06
2018-07-03T10:36:32.050Z,24.85
2018-07-03T10:38:58.032Z,24.65
2018-07-03T10:41:24.041Z,24.64
2018-07-03T10:43:50.031Z,24.88
2018-07-03T10:46:16.025Z,24.85
2018-07-03T10:48:42.038Z,24.68
2018-07-03T10:51:08.020Z,25.05
2018-07-03T10:53:34.000Z,25.22
2018-07-03T10:55:59.973Z,24.80
2018-07-03T10:58:26.005Z,24.62
2018-07-03T11:00:52.017Z,24.56
2018-07-03T11:03:18.021Z,24.62
2018-07-03T11:05:44.013Z,24.43
2018-07-03T11:08:10.020Z,24.31
2018-07-03T11:10:36.017Z,24.32
2018-07-03T11:13:02.230Z,24.33
2018-07-03T11:15:28.280Z,24.34
2018-07-03T11:17:54.235Z,24.33
2018-07-03T11:20:20.217Z,24.50
2018-07-03T11:22:46.534Z,24.39
2018-07-03T11:25:12.545Z,24.72
2018-07-03T11:27:38.498Z,24.51
2018-07-03T11:30:04.493Z,24.54
2018-07-03T11:32:30.819Z,24.46
2018-07-03T11:34:56.797Z,24.35
2018-07-03T11:37:22.773Z,24.33
2018-07-03T11:39:48.776Z,24.36
2018-07-03T11:42:14.735Z,24.32
2018-07-03T11:44:40.766Z,24.43
2018-07-03T11:47:06.730Z,24.39
2018-07-03T11:49:32.718Z,24.48
2018-07-03T11:51:58.709Z,24.44
2018-07-03T11:54:24.716Z,24.47
2018-07-03T11:56:50.706Z,24.53
2018-07-03T11:59:16.718Z,24.40
2018-07-03T12:01:43.027Z,24.34
2018-07-03T12:04:08.989Z,24.31
2018-07-03T12:06:34.969Z,24.26
2018-07-03T12:09:01.061Z,24.31
2018-07-03T12:11:27.052Z,24.50
2018-07-03T12:13:53.066Z,24.46
2018-07-03T12:16:19.068Z,24.39
2018-07-03T12:18:45.049Z,24.38
2018-07-03T12:21:11.038Z,24.36
2018-07-03T12:23:37.022Z,24.40
2018-07-03T12:26:02.994Z,24.35
2018-07-03T12:28:28.989Z,24.52
2018-07-03T12:30:54.982Z,24.70
2018-07-03T12:33:20.982Z,24.57
2018-07-03T12:35:46.960Z,24.46
2018-07-03T12:38:12.942Z,24.39
2018-07-03T12:40:38.934Z,24.39
2018-07-03T12:43:05.011Z,24.38
2018-07-03T12:45:30.994Z,24.43
2018-07-03T12:47:56.967Z,24.44
2018-07-03T12:50:22.924Z,24.41
2018-07-03T12:52:48.905Z,24.39
2018-07-03T12:55:14.887Z,24.36
2018-07-03T12:57:41.080Z,24.39
2018-07-03T13:00:07.145Z,24.42
2018-07-03T13:02:33.124Z,24.46
2018-07-03T13:04:59.143Z,24.45
2018-07-03T13:07:25.106Z,24.44
2018-07-03T13:09:51.163Z,24.45
2018-07-03T13:12:17.249Z,24.43
2018-07-03T13:14:43.245Z,24.39
2018-07-03T13:17:09.287Z,24.40
2018-07-03T13:19:35.253Z,24.46
2018-07-03T13:22:01.231Z,24.44
2018-07-03T13:24:27.234Z,24.41
2018-07-03T13:26:53.365Z,24.56
2018-07-03T13:29:19.356Z,24.43
2018-07-03T13:31:45.430Z,24.45
2018-07-03T13:34:11.469Z,24.42
2018-07-03T13:36:37.431Z,24.41
2018-07-03T13:39:03.503Z,24.49
2018-07-03T13:41:29.472Z,24.40
2018-07-03T13:43:55.678Z,24.37
2018-07-03T13:46:21.668Z,24.50
2018-07-03T13:48:47.667Z,24.55
2018-07-03T13:51:13.629Z,24.50
2018-07-03T13:53:39.614Z,24.62
2018-07-03T13:56:05.581Z,24.71
2018-07-03T13:58:31.558Z,24.56
2018-07-03T14:00:57.558Z,24.51
2018-07-03T14:03:23.501Z,24.60
2018-07-03T14:05:49.491Z,24.58
2018-07-03T14:08:15.475Z,24.54
2018-07-03T14:10:41.488Z,24.51
2018-07-03T14:13:07.452Z,24.52
2018-07-03T14:15:33.485Z,24.49
2018-07-03T14:17:59.590Z,24.46
2018-07-03T14:20:25.580Z,24.46
2018-07-03T14:22:51.619Z,24.51
2018-07-03T14:25:17.589Z,24.54
2018-07-03T14:27:43.592Z,24.55
2018-07-03T14:30:09.606Z,24.55
2018-07-03T14:32:35.556Z,24.58
2018-07-03T14:35:01.532Z,24.53
2018-07-03T14:37:27.511Z,24.53
2018-07-03T14:39:53.476Z,24.61
2018-07-03T14:42:19.484Z,24.60
2018-07-03T14:44:45.489Z,24.49
2018-07-03T14:47:11.466Z,24.46
2018-07-03T14:49:37.454Z,24.49
2018-07-03T14:52:03.419Z,24.57
2018-07-03T14:54:29.422Z,24.57
2018-07-03T14:56:55.430Z,24.54
2018-07-03T14:59:21.407Z,24.52
2018-07-03T15:01:47.408Z,24.48
2018-07-03T15:04:13.371Z,24.57
2018-07-03T15:06:39.451Z,24.63
2018-07-03T15:09:05.463Z,24.56
2018-07-03T15:11:31.441Z,24.56
2018-07-03T15:13:57.451Z,24.53
2018-07-03T15:16:23.461Z,24.57
2018-07-03T15:18:49.440Z,24.62
2018-07-03T15:21:15.450Z,24.59
2018-07-03T15:23:41.512Z,24.54
2018-07-03T15:26:07.537Z,24.53
2018-07-03T15:28:33.520Z,24.59
2018-07-03T15:30:59.490Z,24.64
2018-07-03T15:33:25.460Z,24.56
2018-07-03T15:35:51.536Z,24.56
2018-07-03T15:38:17.540Z,24.58
2018-07-03T15:40:43.517Z,24.59
2018-07-03T15:43:09.498Z,24.58
2018-07-03T15:45:35.463Z,24.65
2018-07-03T15:48:02.006Z,24.63
2018-07-03T15:50:28.000Z,24.57
2018-07-03T15:52:53.978Z,24.54
2018-07-03T15:55:19.941Z,24.56
2018-07-03T15:57:45.920Z,24.57
2018-07-03T16:00:11.911Z,24.55
2018-07-03T16:02:37.905Z,24.52
2018-07-03T16:05:03.896Z,24.54
2018-07-03T16:07:29.872Z,24.55
2018-07-03T16:09:55.880Z,24.59
2018-07-03T16:12:21.916Z,24.65
2018-07-03T16:14:47.919Z,24.69
2018-07-03T16:17:13.874Z,24.71
2018-07-03T16:19:39.848Z,24.65
2018-07-03T16:22:05.831Z,24.68
2018-07-03T16:24:31.811Z,24.69
2018-07-03T16:26:57.844Z,24.68
2018-07-03T16:29:23.848Z,24.61
2018-07-03T16:31:49.877Z,24.65
2018-07-03T16:34:15.875Z,24.64
2018-07-03T16:36:41.865Z,24.63
2018-07-03T16:39:07.844Z,24.62
2018-07-03T16:41:33.838Z,24.60
2018-07-03T16:44:00.103Z,24.58
2018-07-03T16:46:26.049Z,24.59
2018-07-03T16:48:52.021Z,24.60
2018-07-03T16:51:18.014Z,24.57
2018-07-03T16:53:44.001Z,24.63
2018-07-03T16:56:10.196Z,24.67
2018-07-03T16:58:36.217Z,24.64
2018-07-03T17:01:02.162Z,24.64
2018-07-03T17:03:28.156Z,24.66
2018-07-03T17:05:54.112Z,24.66
2018-07-03T17:08:20.094Z,24.68
2018-07-03T17:10:46.097Z,24.73
2018-07-03T17:13:12.081Z,24.69
2018-07-03T17:15:38.076Z,24.70
2018-07-03T17:18:04.053Z,24.69
2018-07-03T17:20:30.071Z,24.66
2018-07-03T17:22:56.065Z,24.60
2018-07-03T17:25:22.108Z,24.60
2018-07-03T17:27:48.120Z,24.58
2018-07-03T17:30:14.099Z,24.63
2018-07-03T17:32:40.355Z,24.59
2018-07-03T17:35:06.323Z,24.67
2018-07-03T17:37:32.289Z,24.66
2018-07-03T17:39:58.245Z,24.64
2018-07-03T17:42:24.259Z,24.73
2018-07-03T17:44:50.230Z,24.67
2018-07-03T17:47:16.221Z,24.65
2018-07-03T17:49:42.218Z,24.65
2018-07-03T17:52:08.199Z,24.68
2018-07-03T17:54:34.174Z,24.71
2018-07-03T17:57:00.170Z,24.70
2018-07-03T17:59:26.171Z,24.72
2018-07-03T18:01:52.524Z,24.71
2018-07-03T18:04:18.552Z,24.66
2018-07-03T18:06:45.368Z,24.66
2018-07-03T18:09:11.621Z,24.59
2018-07-03T18:11:37.606Z,24.65
2018-07-03T18:14:03.602Z,24.63
2018-07-03T18:16:29.631Z,24.60
2018-07-03T18:18:55.612Z,24.60
2018-07-03T18:21:21.599Z,24.64
2018-07-03T18:23:47.603Z,24.67
2018-07-03T18:26:13.739Z,24.66
2018-07-03T18:28:39.721Z,24.66
2018-07-03T18:31:05.703Z,24.68
2018-07-03T18:33:31.700Z,24.71
2018-07-03T18:35:57.699Z,24.70
2018-07-03T18:38:23.684Z,24.70
2018-07-03T18:40:50.018Z,24.75
2018-07-03T18:43:16.025Z,24.66
2018-07-03T18:45:42.028Z,24.72
2018-07-03T18:48:08.028Z,24.82
2018-07-03T18:50:34.327Z,24.79
2018-07-03T18:53:00.278Z,24.75
2018-07-03T18:55:26.245Z,24.84
2018-07-03T18:57:52.224Z,24.82
2018-07-03T19:00:18.247Z,24.82
2018-07-03T19:02:44.206Z,24.89
2018-07-03T19:05:10.182Z,24.84
2018-07-03T19:07:36.233Z,24.81
2018-07-03T19:10:02.236Z,24.84
2018-07-03T19:12:28.260Z,24.82
2018-07-03T19:14:54.305Z,24.89
2018-07-03T19:17:20.292Z,24.93
2018-07-03T19:19:46.384Z,24.93
2018-07-03T19:22:12.424Z,24.89
2018-07-03T19:24:38.406Z,24.88
2018-07-03T19:27:05.262Z,24.88
2018-07-03T19:29:31.269Z,24.86
2018-07-03T19:31:57.278Z,24.86
2018-07-03T19:34:23.268Z,24.79
2018-07-03T19:36:49.299Z,24.74
2018-07-03T19:39:15.319Z,24.77
2018-07-03T19:41:41.339Z,24.76
2018-07-03T19:44:07.331Z,24.75
2018-07-03T19:46:33.312Z,24.70
2018-07-03T19:48:59.308Z,24.71
2018-07-03T19:51:25.338Z,24.71
2018-07-03T19:53:51.340Z,24.76
2018-07-03T19:56:17.348Z,24.71
2018-07-03T19:58:43.372Z,24.70
2018-07-03T20:01:09.353Z,24.72
2018-07-03T20:03:35.333Z,24.77
2018-07-03T20:06:01.324Z,24.79
2018-07-03T20:08:27.472Z,24.74
2018-07-03T20:10:53.514Z,24.74
2018-07-03T20:13:20.536Z,24.70
2018-07-03T20:15:46.519Z,24.74
2018-07-03T20:18:12.509Z,24.67
2018-07-03T20:20:38.471Z,24.67
2018-07-03T20:23:04.442Z,24.64
2018-07-03T20:25:30.415Z,24.58
2018-07-03T20:27:56.391Z,24.65
2018-07-03T20:30:23.403Z,24.57
2018-07-03T20:32:49.431Z,24.53
2018-07-03T20:35:15.427Z,24.58
2018-07-03T20:37:41.426Z,24.60
2018-07-03T20:40:07.396Z,24.61
2018-07-03T20:42:33.374Z,24.53
2018-07-03T20:44:59.357Z,24.56
2018-07-03T20:47:25.370Z,24.58
2018-07-03T20:49:51.346Z,24.54
2018-07-03T20:52:17.347Z,24.60
2018-07-03T20:54:43.325Z,24.63
2018-07-03T20:57:09.334Z,24.69
2018-07-03T20:59:35.335Z,24.67
2018-07-03T21:02:01.317Z,24.66
2018-07-03T21:04:27.345Z,24.62
2018-07-03T21:06:53.303Z,24.59
2018-07-03T21:09:19.322Z,24.52
2018-07-03T21:11:45.502Z,24.51
2018-07-03T21:14:11.508Z,24.50
2018-07-03T21:16:37.577Z,24.64
2018-07-03T21:19:03.567Z,24.53
2018-07-03T21:21:29.562Z,24.48
2018-07-03T21:23:55.536Z,24.52
2018-07-03T21:26:21.524Z,24.57
2018-07-03T21:28:47.558Z,24.67
2018-07-03T21:31:13.650Z,24.70
2018-07-03T21:33:39.843Z,24.57
2018-07-03T21:36:05.809Z,24.49
2018-07-03T21:38:31.826Z,24.62
2018-07-03T21:40:57.794Z,24.47
2018-07-03T21:43:23.779Z,24.54
2018-07-03T21:45:49.750Z,24.56
2018-07-03T21:48:15.812Z,24.49
2018-07-03T21:50:41.787Z,24.49
2018-07-03T21:53:07.771Z,24.51
2018-07-03T21:55:33.723Z,24.56
2018-07-03T21:57:59.733Z,24.56
2018-07-03T22:00:25.748Z,24.63
2018-07-03T22:02:51.674Z,24.52
2018-07-03T22:05:17.639Z,24.41
2018-07-03T22:07:43.627Z,24.36
2018-07-03T22:10:09.620Z,24.57
2018-07-03T22:12:35.607Z,24.50
2018-07-03T22:15:01.601Z,24.49
2018-07-03T22:17:27.568Z,24.44
2018-07-03T22:19:53.569Z,24.46
2018-07-03T22:22:19.541Z,24.51
2018-07-03T22:24:45.537Z,24.58
2018-07-03T22:27:11.519Z,24.43
2018-07-03T22:29:37.806Z,24.44
2018-07-03T22:32:03.768Z,24.50
2018-07-03T22:34:29.742Z,24.52
2018-07-03T22:36:55.923Z,24.39
2018-07-03T22:39:21.921Z,24.50
2018-07-03T22:41:47.917Z,24.54
2018-07-03T22:44:13.875Z,24.40
2018-07-03T22:46:39.911Z,24.51
2018-07-03T22:49:05.895Z,24.38
2018-07-03T22:51:31.858Z,24.30
2018-07-03T22:53:57.958Z,24.25
2018-07-03T22:56:23.919Z,24.25
2018-07-03T22:58:49.889Z,24.22
2018-07-03T23:01:15.887Z,24.26
2018-07-03T23:03:41.872Z,24.32
2018-07-03T23:06:07.861Z,24.32
2018-07-03T23:08:33.925Z,24.38
2018-07-03T23:10:59.878Z,24.48
2018-07-03T23:13:25.917Z,24.49
2018-07-03T23:15:51.823Z,24.42
2018-07-03T23:18:17.833Z,24.42
2018-07-03T23:20:43.799Z,24.41
2018-07-03T23:23:09.801Z,24.62
2018-07-03T23:25:35.907Z,24.37
2018-07-03T23:28:01.887Z,24.36
2018-07-03T23:30:27.889Z,24.42
2018-07-03T23:32:53.856Z,24.32
2018-07-03T23:35:19.852Z,24.38
2018-07-03T23:37:45.828Z,24.26
2018-07-03T23:40:11.791Z,24.47
2018-07-03T23:42:37.768Z,24.29
2018-07-03T23:45:03.718Z,24.24
2018-07-03T23:47:29.742Z,24.39
2018-07-03T23:49:55.806Z,24.34
2018-07-03T23:52:21.799Z,24.31
2018-07-03T23:54:47.731Z,24.29
2018-07-03T23:57:13.716Z,24.51
2018-07-03T23:59:39.676Z,24.39
